Latest Weather Observations for Norfolk Island

IDN60801

Issued at 10:03 am EST Monday 26 September 2016 (issued every 30 minutes, with the page automatically refreshed every 10 minutes)

About weather observations | Map of weather stations | Latest weather observations for NSW | Other Formats
Station Details ID: 200288 Name: NORFOLK ISLAND AERO Lat: -29.04 Lon: 167.94 Height: 111.73 m
Data from the previous 72 hours. | See also: Recent months at Norfolk Island
Date/Time
EST
Temp
°C
App
Temp
°C
Dew
Point
°C
Rel
Hum
%
Delta-T
°C
Wind Press
QNH
hPa
Press
MSL
hPa
Rain since
9am
mm
Dir  Spd
km/h
Gust
km/h
Spd
kts
Gust
kts
26/09:51am 19.3 14.9 14.1 72 3.0 W 30 48 16 26 1003.8 1003.6 0.0
26/09:30am 19.0 15.2 14.6 75 2.6 WNW 28 41 15 22 1003.9 1003.7 0.0
26/09:00am 18.0 16.6 15.6 86 1.4 NW 17 30 9 16 1004.2 1004.0 0.0
26/08:30am 17.3 15.3 14.9 86 1.4 NNW 19 30 10 16 1004.4 1004.2 0.0
26/08:00am 16.8 15.1 14.6 87 1.3 NNW 17 35 9 19 1005.0 1004.7 4.6
26/07:30am 16.3 13.9 14.4 88 1.1 N 20 32 11 17 1004.2 1004.0 4.6
26/07:00am 16.1 14.7 14.4 90 1.0 WNW 15 24 8 13 1005.4 1005.1 4.0
26/06:36am 16.3 14.7 15.1 93 0.7 WNW 17 30 9 16 1005.7 1005.4 3.6
26/06:30am 16.3 14.2 14.6 90 1.0 WNW 19 32 10 17 1005.8 1005.5 3.6
26/06:25am 16.1 13.8 14.2 88 1.1 WNW 19 30 10 16 1005.9 1005.6 3.6
26/06:18am 16.5 14.1 15.5 94 0.6 WNW 22 39 12 21 1006.0 1005.8 3.4
26/06:10am 16.5 12.5 15.1 91 0.8 W 30 48 16 26 1006.0 1005.8 3.2
26/06:09am 16.4 12.0 15.2 93 0.7 W 32 48 17 26 1006.0 1005.8 3.2
26/06:00am 16.9 12.6 15.4 91 0.9 W 32 52 17 28 1006.0 1005.8 2.2
26/05:59am 17.0 12.7 15.5 91 0.9 W 32 52 17 28 1006.0 1005.8 2.0
26/05:54am 17.6 14.1 15.4 87 1.3 W 28 46 15 25 1005.8 1005.5 1.4
26/05:30am 17.8 16.1 14.7 82 1.8 WNW 17 28 9 15 1005.8 1005.5 1.2
26/05:00am 17.0 16.1 14.9 87 1.2 NW 13 19 7 10 1005.7 1005.4 1.2
26/04:30am 16.4 14.1 14.0 86 1.4 NW 19 37 10 20 1005.6 1005.3 1.2
26/04:00am 17.5 16.1 14.4 82 1.8 WNW 15 26 8 14 1005.7 1005.4 0.4
26/03:30am 18.0 15.6 13.8 76 2.4 WNW 19 30 10 16 1005.5 1005.2 0.4
26/03:00am 17.9 16.4 14.3 79 2.1 WNW 15 24 8 13 1005.3 1005.0 0.4
26/02:30am 17.8 16.3 14.3 80 2.0 WNW 15 28 8 15 1005.5 1005.2 0.4
26/02:00am 17.9 16.1 14.5 80 2.0 WNW 17 30 9 16 1005.8 1005.5 0.4
26/01:30am 18.1 15.9 14.3 78 2.2 W 19 28 10 15 1006.1 1005.9 0.4
26/01:00am 18.0 16.2 14.4 79 2.1 W 17 26 9 14 1006.3 1006.1 0.4
26/12:30am 18.0 16.0 14.0 77 2.3 W 17 24 9 13 1006.7 1006.5 0.4
26/12:00am 18.0 16.8 14.0 77 2.3 W 13 19 7 10 1006.9 1006.7 0.4
 
Date/Time
EST
Temp
°C
App
Temp
°C
Dew
Point
°C
Rel
Hum
%
Delta-T
°C
Wind Press
QNH
hPa
Press
MSL
hPa
Rain since
9am
mm
Dir  Spd
km/h
Gust
km/h
Spd
kts
Gust
kts
25/11:30pm 18.1 16.4 13.7 75 2.5 W 15 22 8 12 1007.4 1007.2 0.4
25/11:00pm 18.2 15.9 14.2 77 2.3 W 19 28 10 15 1007.9 1007.7 0.4
25/10:30pm 18.2 16.8 14.4 78 2.2 W 15 20 8 11 1007.9 1007.7 0.4
25/10:00pm 18.1 16.9 13.9 76 2.4 W 13 19 7 10 1007.7 1007.5 0.4
25/09:30pm 18.2 16.6 14.0 76 2.4 WSW 15 20 8 11 1007.9 1007.7 0.4
25/09:00pm 18.2 16.2 13.9 76 2.5 WSW 17 28 9 15 1008.5 1008.3 0.4
25/08:30pm 18.2 15.6 13.7 75 2.6 WSW 20 32 11 17 1008.5 1008.3 0.4
25/08:00pm 17.9 15.3 13.9 77 2.3 WSW 20 26 11 14 1008.7 1008.5 0.4
25/07:30pm 17.9 15.3 13.1 73 2.7 W 19 26 10 14 1008.5 1008.3 0.4
25/07:00pm 18.5 15.8 13.6 73 2.8 WSW 20 30 11 16 1008.6 1008.4 0.4
25/06:30pm 18.4 15.7 13.5 73 2.8 WSW 20 28 11 15 1008.4 1008.2 0.4
25/06:00pm 18.3 15.6 13.4 73 2.8 WSW 20 30 11 16 1008.1 1007.9 0.4
25/05:30pm 18.5 15.7 13.2 71 3.0 WSW 20 32 11 17 1008.2 1008.0 0.4
25/05:00pm 18.4 15.3 13.3 72 2.9 WSW 22 32 12 17 1007.8 1007.6 0.4
25/04:30pm 18.4 15.8 13.3 72 2.9 WSW 19 28 10 15 1007.3 1007.1 0.4
25/04:00pm 19.1 16.5 13.3 69 3.3 WSW 19 26 10 14 1007.0 1006.8 0.4
25/03:30pm 19.0 16.1 13.0 68 3.4 WSW 20 28 11 15 1006.8 1006.6 0.4
25/03:00pm 19.3 16.6 13.6 69 3.3 WSW 20 28 11 15 1006.5 1006.3 0.4
25/02:30pm 20.0 17.3 13.4 65 3.8 WSW 20 30 11 16 1006.6 1006.4 0.4
25/02:00pm 19.8 16.8 13.6 67 3.6 SW 22 28 12 15 1006.6 1006.4 0.4
25/01:30pm 19.7 16.5 13.2 66 3.7 WSW 22 28 12 15 1006.6 1006.4 0.4
25/01:00pm 18.8 17.2 15.1 79 2.2 SW 17 22 9 12 1006.7 1006.5 0.4
25/12:30pm 18.5 16.5 14.9 79 2.1 SW 19 24 10 13 1006.9 1006.7 0.4
25/12:00pm 19.1 17.8 15.9 82 1.9 SW 17 26 9 14 1007.0 1006.8 0.4
25/11:45am 18.1 17.7 16.1 88 1.2 WSW 13 15 7 8 1007.1 1006.9 0.4
25/11:30am 17.3 15.4 15.8 91 0.9 SW 20 28 11 15 1007.4 1007.2 0.4
25/11:18am 17.4 13.9 15.4 88 1.2 SW 28 37 15 20 1007.4 1007.2 0.2
25/11:00am 20.5 18.0 14.2 67 3.7 WSW 20 28 11 15 1007.5 1007.3 0.0
25/10:30am 19.9 16.9 13.7 67 3.6 WSW 22 28 12 15 1007.7 1007.5 0.0
25/10:00am 20.2 17.9 14.6 70 3.3 SW 20 26 11 14 1007.9 1007.7 0.0
25/09:30am 19.4 17.1 14.1 71 3.1 SW 19 26 10 14 1008.1 1007.9 0.0
25/09:00am 20.2 17.8 13.8 66 3.7 SSW 19 28 10 15 1008.2 1008.0 0.0
25/08:30am 20.0 17.1 14.0 68 3.5 SW 22 30 12 16 1008.2 1008.0 0.0
25/08:00am 19.8 16.8 13.7 68 3.5 SW 22 32 12 17 1008.1 1007.9 10.8
25/07:30am 19.4 16.8 13.9 70 3.2 SSW 20 28 11 15 1008.0 1007.8 10.8
25/07:00am 18.4 16.0 14.3 77 2.4 SW 20 30 11 16 1007.9 1007.7 10.8
25/06:30am 18.6 16.0 13.9 74 2.7 SW 20 30 11 16 1007.8 1007.6 10.8
25/06:00am 18.3 15.2 13.4 73 2.8 SW 22 32 12 17 1007.4 1007.2 10.8
25/05:30am 17.8 14.5 14.0 78 2.2 SW 24 32 13 17 1006.9 1006.7 10.8
25/05:00am 17.4 14.4 13.7 79 2.1 SW 22 33 12 18 1006.5 1006.3 10.8
25/04:30am 17.5 14.5 13.8 79 2.1 SW 22 30 12 16 1006.2 1006.0 10.8
25/04:12am 17.0 14.5 14.0 82 1.7 SW 20 30 11 16 1006.1 1005.9 10.8
25/04:01am 16.9 13.5 14.8 87 1.2 SW 26 44 14 24 1006.0 1005.8 10.8
25/04:00am 16.9 13.1 14.8 87 1.2 SW 28 44 15 24 1006.0 1005.8 10.8
25/03:30am 17.0 13.7 14.0 82 1.7 SW 24 33 13 18 1005.7 1005.4 9.8
25/03:11am 17.5 13.8 14.9 85 1.5 SW 28 39 15 21 1005.4 1005.1 9.4
25/03:00am 18.1 14.8 13.9 76 2.4 SW 24 33 13 18 1005.3 1005.0 8.2
25/02:30am 18.0 14.0 14.0 77 2.3 SW 28 37 15 20 1005.1 1004.8 8.2
25/02:00am 18.0 14.0 14.0 77 2.3 SW 28 37 15 20 1005.1 1004.8 8.2
25/01:30am 17.9 13.3 13.5 75 2.5 WSW 30 39 16 21 1005.3 1005.0 8.2
25/01:00am 17.7 13.6 13.9 78 2.2 SW 28 41 15 22 1005.3 1005.0 8.2
25/12:30am 17.8 13.8 14.0 78 2.2 SW 28 37 15 20 1005.3 1005.0 8.2
25/12:00am 17.4 14.0 14.8 85 1.5 SW 26 37 14 20 1005.5 1005.2 8.2
 
Date/Time
EST
Temp
°C
App
Temp
°C
Dew
Point
°C
Rel
Hum
%
Delta-T
°C
Wind Press
QNH
hPa
Press
MSL
hPa
Rain since
9am
mm
Dir  Spd
km/h
Gust
km/h
Spd
kts
Gust
kts
24/11:30pm 18.1 14.0 13.9 76 2.4 WSW 28 39 15 21 1005.6 1005.3 8.2
24/11:00pm 17.8 13.2 13.6 76 2.4 WSW 30 43 16 23 1005.7 1005.4 8.2
24/10:42pm 17.9 13.3 13.5 75 2.5 WSW 30 48 16 26 1005.8 1005.5 8.2
24/10:30pm 17.7 14.1 14.1 79 2.1 WSW 26 41 14 22 1006.0 1005.8 8.2
24/10:07pm 17.1 14.2 14.1 82 1.7 WSW 22 33 12 18 1006.1 1005.9 8.2
24/10:00pm 16.7 13.4 13.9 83 1.6 WSW 24 35 13 19 1006.2 1006.0 8.2
24/09:53pm 16.2 10.8 13.9 86 1.3 WSW 35 54 19 29 1006.3 1006.1 8.2
24/09:51pm 16.4 10.6 13.9 85 1.4 WSW 37 54 20 29 1006.3 1006.1 8.0
24/09:38pm 18.1 13.4 13.2 73 2.8 WSW 30 48 16 26 1006.0 1005.8 8.0
24/09:30pm 17.9 13.6 13.3 74 2.6 WSW 28 39 15 21 1006.1 1005.9 8.0
24/09:00pm 18.0 13.8 13.6 75 2.5 WSW 28 41 15 22 1006.2 1006.0 8.0
24/08:30pm 17.3 12.9 14.2 82 1.8 WSW 30 44 16 24 1006.2 1006.0 8.0
24/08:11pm 18.1 13.9 13.4 74 2.7 WSW 28 48 15 26 1006.2 1006.0 8.0
24/08:00pm 17.7 13.3 14.2 80 2.0 WSW 30 41 16 22 1006.2 1006.0 8.0
24/07:30pm 17.7 13.6 14.8 83 1.7 WSW 30 43 16 23 1006.1 1005.9 8.0
24/07:18pm 17.6 13.8 14.7 83 1.7 WSW 28 46 15 25 1006.1 1005.9 8.0
24/07:00pm 18.1 13.8 14.3 78 2.2 WSW 30 44 16 24 1005.8 1005.5 7.8
24/06:33pm 17.6 13.6 15.2 86 1.4 W 30 48 16 26 1005.7 1005.4 7.2
24/06:30pm 17.5 13.0 14.9 85 1.5 WSW 32 48 17 26 1005.6 1005.3 7.2
24/06:00pm 18.3 13.5 14.0 76 2.5 W 32 44 17 24 1005.5 1005.2 7.2
24/05:30pm 18.1 13.1 14.1 77 2.3 W 33 48 18 26 1005.3 1005.0 7.2
24/05:00pm 17.9 13.3 14.6 81 1.9 W 32 48 17 26 1005.2 1004.9 7.2
24/04:38pm 18.3 13.8 13.8 75 2.6 W 30 52 16 28 1005.0 1004.7 7.2
24/04:30pm 18.8 14.9 14.3 75 2.6 W 28 41 15 22 1004.9 1004.6 7.2
24/04:07pm 18.7 13.8 13.8 73 2.8 W 32 50 17 27 1005.0 1004.7 7.2
24/04:00pm 18.8 14.0 14.0 73 2.8 W 32 41 17 22 1004.9 1004.6 7.2
24/03:30pm 19.0 14.1 13.8 72 3.0 W 32 48 17 26 1004.8 1004.5 7.2
24/03:00pm 19.7 14.7 13.4 67 3.6 W 32 43 17 23 1004.8 1004.5 7.2
24/02:30pm 20.0 14.5 13.6 66 3.7 W 35 46 19 25 1004.7 1004.4 7.2
24/02:00pm 19.8 15.0 14.1 69 3.3 W 32 50 17 27 1004.7 1004.4 7.2
24/01:56pm 19.9 15.1 14.1 69 3.4 W 32 50 17 27 1004.7 1004.4 7.2
24/01:30pm 19.3 15.0 15.3 77 2.4 W 32 48 17 26 1004.8 1004.5 7.2
24/01:05pm 20.3 16.5 15.8 75 2.7 W 30 48 16 26 1004.8 1004.5 7.2
24/01:00pm 19.9 15.3 15.2 74 2.8 W 33 44 18 24 1004.8 1004.5 7.2
24/12:30pm 18.6 15.4 16.4 87 1.3 W 28 43 15 23 1005.2 1004.9 7.2
24/12:00pm 19.3 16.5 15.3 77 2.4 WNW 24 35 13 19 1005.5 1005.2 7.2
24/11:30am 19.2 16.3 16.2 83 1.8 WNW 26 41 14 22 1005.8 1005.5 7.2
24/11:01am 18.6 17.3 15.7 83 1.7 WNW 17 37 9 20 1006.0 1005.8 7.2
24/11:00am 18.7 17.4 15.7 83 1.8 WNW 17 28 9 15 1006.1 1005.9 7.2
24/10:30am 16.9 17.5 15.4 91 0.9 SW 6 13 3 7 1006.8 1006.6 7.0
24/10:22am 16.0 16.3 14.4 90 0.9 WSW 6 17 3 9 1007.1 1006.9 7.0
24/10:00am 15.4 11.9 14.4 94 0.6 SW 26 35 14 19 1007.5 1007.3 7.0
24/09:58am 15.5 11.9 14.3 92 0.7 SW 26 35 14 19 1007.5 1007.3 5.8
24/09:55am 15.9 12.4 14.5 91 0.8 WSW 26 33 14 18 1007.7 1007.5 2.0
24/09:30am 19.6 17.5 14.7 73 2.9 WNW 19 30 10 16 1007.3 1007.1 0.2
24/09:00am 21.0 18.5 14.2 65 4.0 WNW 20 37 11 20 1007.7 1007.5 0.0
24/08:30am 20.2 17.9 14.0 67 3.6 WNW 19 32 10 17 1007.9 1007.7 0.0
24/08:00am 19.9 17.3 13.3 65 3.8 WNW 19 26 10 14 1008.1 1007.9 3.4
24/07:30am 19.5 17.4 12.4 63 4.0 WNW 15 22 8 12 1008.4 1008.2 3.4
24/07:00am 18.0 16.5 13.2 73 2.7 WNW 13 20 7 11 1008.4 1008.2 3.4
24/06:30am 17.0 14.3 13.5 80 2.0 WNW 20 30 11 16 1008.2 1008.0 3.4
24/06:14am 17.1 13.1 14.0 82 1.8 W 28 43 15 23 1008.5 1008.3 3.4
24/06:00am 18.6 17.4 14.1 75 2.6 W 13 22 7 12 1008.3 1008.1 3.4
24/05:30am 18.4 16.5 14.1 76 2.5 W 17 26 9 14 1008.0 1007.8 3.4
24/05:00am 18.3 15.8 13.6 74 2.7 W 19 26 10 14 1007.8 1007.6 3.4
24/04:30am 17.9 15.8 13.7 76 2.4 W 17 26 9 14 1007.6 1007.4 3.4
24/04:00am 18.0 15.2 13.1 73 2.8 W 20 30 11 16 1007.3 1007.1 3.4
24/03:30am 17.9 15.1 12.7 71 2.9 W 19 28 10 15 1007.0 1006.8 3.4
24/03:00am 18.1 15.1 13.6 75 2.6 WSW 22 33 12 18 1006.9 1006.7 3.4
24/02:30am 18.2 15.3 14.0 76 2.4 W 22 32 12 17 1006.7 1006.5 3.4
24/02:00am 18.2 15.6 13.9 76 2.5 WSW 20 28 11 15 1006.7 1006.5 3.4
24/01:30am 18.2 16.2 13.9 76 2.5 WSW 17 26 9 14 1006.7 1006.5 3.4
24/01:00am 18.4 16.8 15.0 80 2.0 WSW 17 22 9 12 1007.1 1006.9 3.4
24/12:38am 18.5 17.1 15.6 83 1.7 WSW 17 26 9 14 1007.3 1007.1 3.4
24/12:30am 18.7 17.3 15.5 81 1.9 WSW 17 28 9 15 1007.4 1007.2 3.4
24/12:05am 19.0 16.2 16.3 84 1.6 W 26 35 14 19 1007.6 1007.4 3.4
24/12:00am 19.0 16.1 16.2 84 1.7 W 26 35 14 19 1007.6 1007.4 3.4
 
Date/Time
EST
Temp
°C
App
Temp
°C
Dew
Point
°C
Rel
Hum
%
Delta-T
°C
Wind Press
QNH
hPa
Press
MSL
hPa
Rain since
9am
mm
Dir  Spd
km/h
Gust
km/h
Spd
kts
Gust
kts
23/11:37pm 18.7 16.5 15.9 84 1.7 W 22 35 12 19 1007.5 1007.3 3.4
23/11:30pm 18.7 16.1 15.9 84 1.7 W 24 35 13 19 1007.5 1007.3 3.4
23/11:00pm 19.4 17.9 17.6 89 1.1 W 22 32 12 17 1007.7 1007.5 3.4
23/10:30pm 19.4 18.4 17.9 91 0.9 WNW 20 32 11 17 1007.9 1007.7 3.4
23/10:00pm 19.4 18.9 17.8 90 1.0 WNW 17 28 9 15 1008.1 1007.9 3.4
23/09:30pm 19.3 18.8 17.8 91 0.9 WNW 17 24 9 13 1008.3 1008.1 3.4
23/09:00pm 19.2 18.5 17.4 89 1.1 WNW 17 32 9 17 1008.5 1008.3 3.4
23/08:57pm 19.2 18.1 17.4 89 1.1 WNW 19 32 10 17 1008.5 1008.3 3.4
23/08:56pm 19.2 18.1 17.4 89 1.1 WNW 19 32 10 17 1008.5 1008.3 3.4
23/08:30pm 19.2 18.1 17.2 88 1.2 WNW 19 32 10 17 1008.6 1008.4 3.4
23/08:09pm 19.3 17.9 17.0 86 1.4 WNW 20 33 11 18 1008.7 1008.5 3.4
23/08:00pm 19.2 17.9 16.9 86 1.4 WNW 19 32 10 17 1008.7 1008.5 3.4
23/07:58pm 19.2 17.8 16.9 86 1.4 WNW 20 35 11 19 1008.8 1008.6 3.4
23/07:30pm 19.2 17.2 17.4 89 1.1 WNW 24 39 13 21 1008.8 1008.6 3.4
23/07:00pm 19.1 18.8 17.3 89 1.1 WNW 15 26 8 14 1008.7 1008.5 3.4
23/06:30pm 19.1 18.0 17.3 89 1.1 WNW 19 28 10 15 1008.7 1008.5 3.4
23/06:00pm 19.2 17.8 17.1 88 1.3 NW 20 37 11 20 1008.6 1008.4 3.4
23/05:30pm 19.5 19.0 17.9 90 1.0 NW 17 30 9 16 1008.6 1008.4 3.4
23/05:00pm 19.5 18.9 17.6 89 1.2 NNW 17 32 9 17 1008.2 1008.0 3.4
23/04:30pm 19.4 18.7 17.4 88 1.2 NW 17 33 9 18 1008.2 1008.0 3.4
23/04:00pm 19.5 18.7 17.2 86 1.4 NNW 17 32 9 17 1008.0 1007.8 3.4
23/03:59pm 19.6 18.8 17.2 86 1.5 NNW 17 32 9 17 1008.0 1007.8 3.4
23/03:30pm 19.9 19.2 17.3 85 1.6 NNW 17 35 9 19 1007.9 1007.7 3.4
23/03:10pm 19.5 18.1 16.9 85 1.6 NNW 20 37 11 20 1007.8 1007.6 3.4
23/03:00pm 19.3 18.4 16.8 85 1.5 NNW 17 33 9 18 1008.0 1007.8 3.4
23/02:30pm 18.8 19.0 16.8 88 1.2 NNW 11 26 6 14 1008.1 1007.9 3.4
23/02:00pm 18.9 17.8 16.4 85 1.5 N 17 28 9 15 1007.0 1006.8 3.4
23/01:30pm 18.2 17.7 16.0 87 1.3 N 13 20 7 11 1008.5 1008.3 3.4
23/01:00pm 17.4 18.1 15.7 90 1.0 WNW 6 11 3 6 1009.2 1009.0 3.4
23/12:30pm 17.3 16.6 15.4 88 1.1 W 13 19 7 10 1009.6 1009.4 3.2
23/12:08pm 18.0 16.4 15.1 83 1.7 WNW 17 28 9 15 1010.0 1009.8 1.2
23/12:00pm 19.1 18.9 16.6 85 1.5 NW 13 20 7 11 1009.8 1009.6 0.6
23/11:30am 19.4 17.9 14.2 72 3.0 NNW 15 33 8 18 1009.8 1009.6 0.4
23/11:00am 20.1 19.6 15.9 77 2.5 NW 13 24 7 13 1010.1 1009.9 0.2
23/10:30am 21.7 20.4 16.8 73 3.0 NNE 19 32 10 17 1009.9 1009.7 0.2
23/10:00am 21.0 20.4 16.6 76 2.7 N 15 26 8 14 1011.0 1010.8 0.0
23/09:30am 20.0 18.7 16.7 81 2.0 NNE 19 28 10 15 1010.5 1010.3 0.0
23/09:00am 20.0 18.7 16.7 81 2.0 NNE 19 26 10 14 1011.3 1011.1 0.0

Other Formats:

Comma delimited format used in spreadsheet applications
http://www.bom.gov.au/fwo/IDN60801/IDN60801.94996.axf

JavaScript Object Notation format (JSON) in row-major order
http://www.bom.gov.au/fwo/IDN60801/IDN60801.94996.json